aviador You're here:

KS32 Decoded Metar

in
Report Time2018-06-25 11:55:00
UTC Time2018-06-25 11:58:16
Flight Rules mvfr MVFR
Wind130° at 10 Gusting to 15 kt
W.Rank130° ranks 18
Current wind is above 130° avg. (9.3)
Visibility9999 m
Phenomena:N/A
Clouds:Overcast 012 Hf
Expected CloudBase > 400 ft AGL from Temp-Dew spread
Ceiling1,200 ft
Temp16°C
Dew Point15°C (94% RH)
AAT14.0°C
QNH1016 hPa
Raw Report
KS32 251155Z AUTO 13010G15KT 10SM OVC012 16/15 A3000 RMK AO2=

Extra information for KS32:More info

Social comments